createdAt,value
2022-12-05T00:01:28.876Z,7.32
2022-12-05T00:04:31.307Z,8.38
2022-12-05T00:07:33.549Z,8.63
2022-12-05T00:10:36.666Z,8.40
2022-12-05T00:13:40.443Z,7.85
2022-12-05T00:16:44.357Z,7.15
2022-12-05T00:19:46.566Z,9.40
2022-12-05T00:22:48.928Z,7.37
2022-12-05T00:25:51.174Z,7.80
2022-12-05T00:28:54.458Z,7.65
2022-12-05T00:31:57.218Z,10.02
2022-12-05T00:34:59.651Z,9.02
2022-12-05T00:38:01.841Z,9.30
2022-12-05T00:41:12.054Z,7.20
2022-12-05T00:44:14.253Z,6.72
2022-12-05T00:47:16.872Z,8.07
2022-12-05T00:50:19.059Z,10.60
2022-12-05T00:53:21.428Z,9.30
2022-12-05T00:56:25.371Z,9.60
2022-12-05T00:59:27.857Z,8.05
2022-12-05T01:02:30.365Z,7.72
2022-12-05T01:05:34.560Z,6.68
2022-12-05T01:08:37.146Z,7.78
2022-12-05T01:11:41.675Z,11.35
2022-12-05T01:14:43.970Z,7.25
2022-12-05T01:17:46.382Z,7.07
2022-12-05T01:20:49.488Z,6.87
2022-12-05T01:23:52.397Z,6.87
2022-12-05T01:26:54.609Z,8.75
2022-12-05T01:29:58.059Z,7.32
2022-12-05T01:33:00.411Z,7.97
2022-12-05T01:36:04.249Z,9.48
2022-12-05T01:39:08.091Z,7.80
2022-12-05T01:42:11.984Z,8.48
2022-12-05T01:45:17.457Z,8.63
2022-12-05T01:48:27.901Z,7.68
2022-12-05T01:51:30.669Z,8.13
2022-12-05T01:54:36.226Z,7.85
2022-12-05T01:57:38.633Z,9.77
2022-12-05T02:00:41.120Z,6.97
2022-12-05T02:03:44.825Z,7.53
2022-12-05T02:06:47.489Z,8.25
2022-12-05T02:09:51.088Z,8.60
2022-12-05T02:12:53.407Z,9.23
2022-12-05T02:16:05.901Z,8.93
2022-12-05T02:19:23.654Z,9.68
2022-12-05T02:22:53.819Z,9.18
2022-12-05T02:26:29.033Z,9.90
2022-12-05T02:29:56.768Z,7.78
2022-12-05T02:33:24.391Z,8.35
2022-12-05T02:36:39.566Z,9.20
2022-12-05T02:39:44.604Z,9.10
2022-12-05T02:42:57.589Z,8.63
2022-12-05T02:46:06.015Z,9.52
2022-12-05T02:49:12.158Z,8.80
2022-12-05T02:52:16.902Z,8.18
2022-12-05T02:55:20.804Z,7.80
2022-12-05T02:58:28.080Z,8.98
2022-12-05T03:01:32.525Z,8.43
2022-12-05T03:04:35.519Z,7.78
2022-12-05T03:07:40.276Z,11.35
2022-12-05T03:10:45.337Z,9.80
2022-12-05T03:14:02.939Z,9.43
2022-12-05T03:17:10.529Z,12.07
2022-12-05T03:20:29.472Z,10.30
2022-12-05T03:23:38.067Z,10.85
2022-12-05T03:27:03.255Z,12.20
2022-12-05T03:30:12.654Z,10.02
2022-12-05T03:33:21.920Z,14.27
2022-12-05T03:36:32.454Z,9.13
2022-12-05T03:39:37.898Z,11.05
2022-12-05T03:42:49.772Z,13.60
2022-12-05T03:45:58.033Z,11.68
2022-12-05T03:49:16.290Z,11.57
2022-12-05T03:52:22.959Z,11.30
2022-12-05T03:55:30.035Z,11.82
2022-12-05T03:58:39.603Z,10.73
2022-12-05T04:01:43.662Z,12.30
2022-12-05T04:04:54.480Z,11.57
2022-12-05T04:08:02.991Z,11.82
2022-12-05T04:11:14.250Z,11.48
2022-12-05T04:14:22.561Z,10.90
2022-12-05T04:17:53.478Z,13.70
2022-12-05T04:21:17.251Z,11.27
2022-12-05T04:24:47.224Z,12.37
2022-12-05T04:27:58.336Z,12.68
2022-12-05T04:31:05.762Z,11.63
2022-12-05T04:34:10.934Z,10.82
2022-12-05T04:37:16.635Z,11.45
2022-12-05T04:40:29.640Z,11.15
2022-12-05T04:43:42.298Z,10.75
2022-12-05T04:46:46.034Z,10.95
2022-12-05T04:49:53.553Z,11.35
2022-12-05T04:52:59.183Z,12.32
2022-12-05T04:56:04.207Z,11.25
2022-12-05T04:59:06.331Z,16.80
2022-12-05T05:02:11.988Z,14.38
2022-12-05T05:05:18.005Z,13.57
2022-12-05T05:08:24.162Z,12.63
2022-12-05T05:11:33.347Z,13.52
2022-12-05T05:14:35.985Z,12.93
2022-12-05T05:17:38.037Z,13.20
2022-12-05T05:20:40.468Z,13.82
2022-12-05T05:23:42.632Z,11.75
2022-12-05T05:26:46.322Z,11.65
2022-12-05T05:29:48.422Z,13.35
2022-12-05T05:32:51.061Z,14.18
2022-12-05T05:35:53.171Z,12.10
2022-12-05T05:39:00.634Z,13.52
2022-12-05T05:42:02.945Z,12.10
2022-12-05T05:45:07.958Z,13.35
2022-12-05T05:48:10.072Z,12.05
2022-12-05T05:51:13.693Z,13.77
2022-12-05T05:54:15.821Z,12.18
2022-12-05T05:57:20.535Z,11.15
2022-12-05T06:00:22.932Z,13.93
2022-12-05T06:03:25.520Z,12.48
2022-12-05T06:06:28.027Z,13.52
2022-12-05T06:09:31.568Z,12.23
2022-12-05T06:12:34.037Z,12.27
2022-12-05T06:15:37.320Z,13.65
2022-12-05T06:18:39.441Z,12.37
2022-12-05T06:21:41.820Z,11.07
2022-12-05T06:24:43.990Z,12.05
2022-12-05T06:27:46.376Z,11.65
2022-12-05T06:30:55.709Z,12.35
2022-12-05T06:34:06.900Z,12.75
2022-12-05T06:37:09.094Z,11.27
2022-12-05T06:40:12.898Z,11.38
2022-12-05T06:43:15.063Z,12.75
2022-12-05T06:46:18.738Z,10.35
2022-12-05T06:49:25.070Z,10.90
2022-12-05T06:52:31.789Z,11.23
2022-12-05T06:55:33.905Z,13.18
2022-12-05T06:58:36.467Z,12.93
2022-12-05T07:01:38.936Z,12.32
2022-12-05T07:04:41.445Z,11.35
2022-12-05T07:07:43.615Z,10.52
2022-12-05T07:10:51.513Z,11.20
2022-12-05T07:13:53.717Z,12.10
2022-12-05T07:16:56.138Z,12.05
2022-12-05T07:19:58.653Z,12.13
2022-12-05T07:23:01.289Z,10.05
2022-12-05T07:26:07.944Z,13.88
2022-12-05T07:29:10.750Z,10.20
2022-12-05T07:32:12.956Z,11.57
2022-12-05T07:35:15.389Z,10.95
2022-12-05T07:38:17.714Z,11.75
2022-12-05T07:41:23.606Z,14.27
2022-12-05T07:44:25.697Z,9.60
2022-12-05T07:47:30.868Z,9.50
2022-12-05T07:50:32.963Z,9.98
2022-12-05T07:53:36.177Z,10.55
2022-12-05T07:56:41.999Z,9.45
2022-12-05T07:59:47.159Z,11.90
2022-12-05T08:02:49.370Z,11.63
2022-12-05T08:05:51.788Z,10.85
2022-12-05T08:08:54.378Z,9.32
2022-12-05T08:11:56.944Z,13.00
2022-12-05T08:14:59.106Z,9.60
2022-12-05T08:18:01.536Z,15.07
2022-12-05T08:21:12.746Z,12.25
2022-12-05T08:24:15.201Z,11.23
2022-12-05T08:27:17.323Z,11.70
2022-12-05T08:30:20.014Z,12.63
2022-12-05T08:33:22.184Z,10.75
2022-12-05T08:36:24.879Z,13.52
2022-12-05T08:39:27.363Z,10.57
2022-12-05T08:42:29.763Z,9.55
2022-12-05T08:45:32.093Z,11.73
2022-12-05T08:48:35.634Z,9.60
2022-12-05T08:51:38.191Z,10.65
2022-12-05T08:54:40.636Z,10.55
2022-12-05T08:57:42.753Z,11.30
2022-12-05T09:00:45.159Z,10.95
2022-12-05T09:03:48.361Z,8.68
2022-12-05T09:06:51.757Z,8.88
2022-12-05T09:09:53.882Z,9.10
2022-12-05T09:12:56.210Z,10.27
2022-12-05T09:15:58.608Z,9.23
2022-12-05T09:19:01.006Z,9.80
2022-12-05T09:22:05.198Z,14.35
2022-12-05T09:25:09.040Z,11.27
2022-12-05T09:28:11.169Z,12.27
2022-12-05T09:31:16.358Z,11.20
2022-12-05T09:34:20.107Z,10.48
2022-12-05T09:37:38.769Z,12.60
2022-12-05T09:40:43.212Z,12.35
2022-12-05T09:44:00.273Z,11.93
2022-12-05T09:47:16.616Z,11.25
2022-12-05T09:50:22.760Z,10.95
2022-12-05T09:53:28.036Z,15.25
2022-12-05T09:56:30.860Z,12.73
2022-12-05T09:59:34.815Z,13.32
2022-12-05T10:03:12.326Z,11.55
2022-12-05T10:06:25.457Z,12.40
2022-12-05T10:09:47.154Z,12.63
2022-12-05T10:13:01.888Z,11.50
2022-12-05T10:16:12.442Z,11.60
2022-12-05T10:19:39.601Z,12.68
2022-12-05T10:22:57.698Z,13.88
2022-12-05T10:26:04.856Z,12.68
2022-12-05T10:29:19.184Z,12.82
2022-12-05T10:32:30.660Z,12.32
2022-12-05T10:38:44.591Z,13.50
2022-12-05T10:41:46.789Z,12.52
2022-12-05T10:44:55.554Z,14.82
2022-12-05T10:47:58.286Z,14.13
2022-12-05T10:51:00.939Z,14.75
2022-12-05T10:54:14.946Z,16.02
2022-12-05T10:57:26.112Z,14.35
2022-12-05T11:00:32.615Z,15.65
2022-12-05T11:03:38.419Z,14.45
2022-12-05T11:06:50.737Z,14.82
2022-12-05T11:09:58.178Z,13.95
2022-12-05T11:13:01.091Z,17.95
2022-12-05T11:16:03.608Z,15.98
2022-12-05T11:19:20.080Z,16.42
2022-12-05T11:22:30.932Z,17.60
2022-12-05T11:25:37.060Z,17.42
2022-12-05T11:28:40.467Z,16.20
2022-12-05T11:31:51.565Z,16.37
2022-12-05T11:35:01.524Z,17.12
2022-12-05T11:38:05.385Z,17.30
2022-12-05T11:41:44.331Z,16.40
2022-12-05T11:45:40.807Z,15.13
2022-12-05T11:49:23.717Z,14.60
2022-12-05T11:53:04.897Z,15.02
2022-12-05T11:56:38.460Z,16.35
2022-12-05T12:00:18.313Z,14.68
2022-12-05T12:03:36.976Z,15.65
2022-12-05T12:06:45.148Z,17.67
2022-12-05T12:10:10.734Z,16.05
2022-12-05T12:13:34.810Z,21.92
2022-12-05T12:16:59.158Z,15.90
2022-12-05T12:20:19.663Z,16.42
2022-12-05T12:23:40.619Z,14.65
2022-12-05T12:26:58.483Z,16.50
2022-12-05T12:30:20.435Z,15.38
2022-12-05T12:33:37.221Z,17.17
2022-12-05T12:36:52.658Z,16.37
2022-12-05T12:40:15.052Z,17.17
2022-12-05T12:43:44.743Z,15.85
2022-12-05T12:46:50.895Z,15.07
2022-12-05T12:50:14.193Z,14.65
2022-12-05T12:53:39.510Z,15.75
2022-12-05T12:57:10.621Z,15.32
2022-12-05T13:00:23.742Z,16.80
2022-12-05T13:03:51.525Z,14.85
2022-12-05T13:07:00.405Z,15.18
2022-12-05T13:10:34.832Z,18.15
2022-12-05T13:13:53.205Z,16.08
2022-12-05T13:16:58.637Z,16.12
2022-12-05T13:20:01.148Z,15.85
2022-12-05T13:23:08.384Z,16.65
2022-12-05T13:26:12.634Z,18.25
2022-12-05T13:29:29.565Z,18.62
2022-12-05T13:32:38.049Z,22.27
2022-12-05T13:35:59.077Z,22.95
2022-12-05T13:39:23.165Z,23.95
2022-12-05T13:42:30.338Z,23.83
2022-12-05T13:45:34.643Z,28.77
2022-12-05T13:48:40.989Z,25.27
2022-12-05T13:51:46.166Z,27.77
2022-12-05T13:54:58.101Z,25.08
2022-12-05T13:58:01.670Z,22.85
2022-12-05T14:01:23.151Z,24.20
2022-12-05T14:04:46.245Z,23.00
2022-12-05T14:07:52.677Z,21.98
2022-12-05T14:10:55.203Z,22.40
2022-12-05T14:14:03.939Z,21.55
2022-12-05T14:17:08.383Z,21.23
2022-12-05T14:20:45.425Z,20.90
2022-12-05T14:24:17.877Z,19.30
2022-12-05T14:28:09.186Z,20.20
2022-12-05T14:31:23.035Z,19.37
2022-12-05T14:34:29.181Z,21.37
2022-12-05T14:37:37.180Z,20.27
2022-12-05T14:40:42.165Z,18.25
2022-12-05T14:43:51.010Z,18.12
2022-12-05T14:46:53.144Z,19.23
2022-12-05T14:50:35.482Z,18.05
2022-12-05T14:53:41.737Z,19.17
2022-12-05T14:56:48.808Z,22.98
2022-12-05T15:00:01.393Z,19.55
2022-12-05T15:03:05.836Z,18.52
2022-12-05T15:06:15.878Z,18.33
2022-12-05T15:09:40.296Z,18.45
2022-12-05T15:12:56.528Z,18.25
2022-12-05T15:16:13.133Z,18.62
2022-12-05T15:19:22.145Z,22.02
2022-12-05T15:22:28.084Z,18.60
2022-12-05T15:25:32.809Z,20.35
2022-12-05T15:28:35.341Z,18.67
2022-12-05T15:31:44.961Z,19.90
2022-12-05T15:34:54.026Z,18.90
2022-12-05T15:38:01.908Z,18.55
2022-12-05T15:41:17.358Z,18.83
2022-12-05T15:44:25.388Z,21.65
2022-12-05T15:47:29.990Z,17.77
2022-12-05T15:50:51.355Z,18.12
2022-12-05T15:54:09.175Z,17.65
2022-12-05T15:57:46.319Z,17.35
2022-12-05T16:00:51.035Z,17.40
2022-12-05T16:03:56.094Z,14.70
2022-12-05T16:07:03.370Z,15.48
2022-12-05T16:10:06.630Z,16.37
2022-12-05T16:41:50.464Z,12.23
2022-12-05T16:45:01.765Z,11.70
2022-12-05T16:48:14.078Z,11.90
2022-12-05T16:51:21.588Z,10.63
2022-12-05T16:54:24.140Z,13.32
2022-12-05T16:57:26.362Z,13.82
2022-12-05T17:00:30.376Z,13.27
2022-12-05T17:03:35.435Z,10.93
2022-12-05T17:06:39.313Z,10.52
2022-12-05T17:09:41.459Z,10.18
2022-12-05T17:12:47.765Z,12.43
2022-12-05T17:15:50.257Z,11.88
2022-12-05T17:18:52.955Z,11.48
2022-12-05T17:21:55.215Z,13.18
2022-12-05T17:24:59.843Z,10.77
2022-12-05T17:28:02.401Z,9.95
2022-12-05T17:31:05.642Z,10.77
2022-12-05T17:34:15.933Z,12.85
2022-12-05T17:37:18.322Z,13.23
2022-12-05T17:40:20.459Z,12.02
2022-12-05T17:43:25.219Z,12.30
2022-12-05T17:46:27.508Z,13.50
2022-12-05T17:49:30.226Z,13.18
2022-12-05T17:52:33.906Z,12.57
2022-12-05T17:55:36.279Z,13.80
2022-12-05T17:58:38.633Z,13.93
2022-12-05T18:01:41.093Z,13.07
2022-12-05T18:04:43.498Z,15.75
2022-12-05T18:07:46.732Z,14.95
2022-12-05T18:10:50.200Z,12.73
2022-12-05T18:13:53.044Z,13.10
2022-12-05T18:16:55.495Z,14.60
2022-12-05T18:19:57.866Z,13.93
2022-12-05T18:23:01.328Z,14.65
2022-12-05T18:26:05.615Z,15.55
2022-12-05T18:29:07.988Z,13.93
2022-12-05T18:32:10.389Z,16.23
2022-12-05T18:35:13.305Z,14.00
2022-12-05T18:38:15.474Z,15.65
2022-12-05T18:41:17.991Z,16.00
2022-12-05T18:44:20.384Z,14.70
2022-12-05T18:47:24.386Z,17.87
2022-12-05T18:50:26.523Z,14.63
2022-12-05T18:53:29.622Z,14.80
2022-12-05T18:56:38.181Z,17.27
2022-12-05T18:59:40.620Z,15.98
2022-12-05T19:02:42.813Z,17.83
2022-12-05T19:05:45.215Z,13.43
2022-12-05T19:08:47.759Z,16.62
2022-12-05T19:11:54.831Z,15.68
2022-12-05T19:14:57.149Z,14.30
2022-12-05T19:17:59.739Z,14.80
2022-12-05T19:21:01.959Z,15.93
2022-12-05T19:24:06.251Z,17.35
2022-12-05T19:27:08.341Z,14.80
2022-12-05T19:30:11.126Z,17.70
2022-12-05T19:33:13.288Z,17.25
2022-12-05T19:36:21.326Z,18.65
2022-12-05T19:39:38.717Z,17.75
2022-12-05T19:42:41.117Z,14.15
2022-12-05T19:45:43.311Z,15.90
2022-12-05T19:48:46.550Z,19.10
2022-12-05T19:51:49.376Z,17.05
2022-12-05T19:54:51.945Z,13.38
2022-12-05T19:57:54.042Z,15.38
2022-12-05T20:00:56.430Z,18.37
2022-12-05T20:04:00.379Z,16.02
2022-12-05T20:07:02.736Z,15.40
2022-12-05T20:10:06.617Z,19.23
2022-12-05T20:13:24.148Z,16.60
2022-12-05T20:16:31.326Z,16.80
2022-12-05T20:19:33.498Z,15.52
2022-12-05T20:22:36.380Z,16.45
2022-12-05T20:25:38.489Z,15.40
2022-12-05T20:28:41.638Z,15.57
2022-12-05T20:31:43.885Z,18.95
2022-12-05T20:34:46.406Z,15.07
2022-12-05T20:37:48.525Z,15.32
2022-12-05T20:40:50.903Z,15.60
2022-12-05T20:43:55.636Z,17.80
2022-12-05T20:46:58.068Z,16.37
2022-12-05T20:50:00.398Z,16.08
2022-12-05T20:53:03.011Z,15.18
2022-12-05T20:56:07.451Z,17.27
2022-12-05T20:59:11.709Z,19.83
2022-12-05T21:02:13.940Z,17.45
2022-12-05T21:05:16.452Z,18.58
2022-12-05T21:08:18.796Z,17.17
2022-12-05T21:11:22.452Z,19.17
2022-12-05T21:14:24.710Z,20.27
2022-12-05T21:17:27.443Z,18.73
2022-12-05T21:20:29.570Z,22.00
2022-12-05T21:23:32.273Z,21.08
2022-12-05T21:26:35.025Z,22.85
2022-12-05T21:29:37.425Z,24.80
2022-12-05T21:32:39.585Z,23.90
2022-12-05T21:35:41.990Z,24.80
2022-12-05T21:38:44.864Z,22.87
2022-12-05T21:41:47.202Z,25.52
2022-12-05T21:44:49.284Z,23.83
2022-12-05T21:47:51.684Z,22.15
2022-12-05T21:50:54.595Z,23.02
2022-12-05T21:53:57.000Z,21.87
2022-12-05T21:56:59.141Z,20.58
2022-12-05T22:00:01.610Z,19.40
2022-12-05T22:03:07.487Z,20.25
2022-12-05T22:06:12.116Z,19.25
2022-12-05T22:09:14.447Z,24.10
2022-12-05T22:12:16.820Z,19.02
2022-12-05T22:15:18.920Z,20.55
2022-12-05T22:18:21.348Z,19.75
2022-12-05T22:21:23.489Z,17.10
2022-12-05T22:24:25.876Z,20.08
2022-12-05T22:27:29.868Z,24.45
2022-12-05T22:30:32.206Z,17.35
2022-12-05T22:33:37.971Z,18.62
2022-12-05T22:36:40.310Z,18.48
2022-12-05T22:39:42.465Z,19.40
2022-12-05T22:42:44.826Z,17.27
2022-12-05T22:45:46.919Z,18.15
2022-12-05T22:48:50.618Z,19.05
2022-12-05T22:51:52.823Z,17.67
2022-12-05T22:54:55.195Z,19.15
2022-12-05T22:57:59.014Z,18.52
2022-12-05T23:01:10.395Z,18.27
2022-12-05T23:07:15.027Z,16.42
2022-12-05T23:10:17.308Z,19.90
2022-12-05T23:13:19.687Z,16.27
2022-12-05T23:16:26.199Z,15.38
2022-12-05T23:19:28.546Z,19.15
2022-12-05T23:22:30.696Z,18.10
2022-12-05T23:25:32.961Z,19.58
2022-12-05T23:28:35.012Z,17.05
2022-12-05T23:31:37.374Z,17.02
2022-12-05T23:34:39.496Z,18.55
2022-12-05T23:37:42.033Z,17.08
2022-12-05T23:40:44.063Z,16.95
2022-12-05T23:43:47.608Z,19.30
2022-12-05T23:46:49.706Z,16.67
2022-12-05T23:49:52.048Z,18.40
2022-12-05T23:52:54.086Z,17.67
2022-12-05T23:56:00.779Z,15.38
2022-12-05T23:59:05.952Z,18.30
